sensor_id;sensor_type;location;lat;lon;timestamp;P1;durP1;ratioP1;P2;durP2;ratioP2
31764;SDS011;18338;53.240;8.798;2022-12-07T00:01:45;39.83;;;20.57;;
31764;SDS011;18338;53.240;8.798;2022-12-07T00:04:14;38.47;;;20.17;;
31764;SDS011;18338;53.240;8.798;2022-12-07T00:06:44;43.50;;;20.50;;
31764;SDS011;18338;53.240;8.798;2022-12-07T00:09:13;43.87;;;20.20;;
31764;SDS011;18338;53.240;8.798;2022-12-07T00:11:42;44.50;;;20.43;;
31764;SDS011;18338;53.240;8.798;2022-12-07T00:14:12;38.93;;;20.73;;
31764;SDS011;18338;53.240;8.798;2022-12-07T00:20:28;36.20;;;18.37;;
31764;SDS011;18338;53.240;8.798;2022-12-07T00:23:05;39.47;;;17.67;;
31764;SDS011;18338;53.240;8.798;2022-12-07T00:29:20;28.50;;;14.10;;
31764;SDS011;18338;53.240;8.798;2022-12-07T00:44:44;29.10;;;13.87;;
31764;SDS011;18338;53.240;8.798;2022-12-07T00:48:12;23.70;;;12.53;;
31764;SDS011;18338;53.240;8.798;2022-12-07T00:50:39;28.63;;;13.67;;
31764;SDS011;18338;53.240;8.798;2022-12-07T00:53:06;28.73;;;13.33;;
31764;SDS011;18338;53.240;8.798;2022-12-07T00:55:34;30.57;;;13.23;;
31764;SDS011;18338;53.240;8.798;2022-12-07T00:58:07;27.90;;;12.37;;
31764;SDS011;18338;53.240;8.798;2022-12-07T01:04:19;23.73;;;11.27;;
31764;SDS011;18338;53.240;8.798;2022-12-07T01:06:46;21.47;;;10.63;;
31764;SDS011;18338;53.240;8.798;2022-12-07T01:09:13;19.53;;;9.93;;
31764;SDS011;18338;53.240;8.798;2022-12-07T01:11:40;19.87;;;8.50;;
31764;SDS011;18338;53.240;8.798;2022-12-07T01:14:15;19.80;;;9.33;;
31764;SDS011;18338;53.240;8.798;2022-12-07T01:16:42;20.50;;;9.30;;
31764;SDS011;18338;53.240;8.798;2022-12-07T01:19:09;19.07;;;9.27;;
31764;SDS011;18338;53.240;8.798;2022-12-07T01:21:36;20.20;;;8.20;;
31764;SDS011;18338;53.240;8.798;2022-12-07T01:24:06;16.63;;;7.30;;
31764;SDS011;18338;53.240;8.798;2022-12-07T01:26:35;14.50;;;8.13;;
31764;SDS011;18338;53.240;8.798;2022-12-07T01:29:02;15.27;;;6.70;;
31764;SDS011;18338;53.240;8.798;2022-12-07T01:31:29;12.13;;;5.10;;
31764;SDS011;18338;53.240;8.798;2022-12-07T01:33:57;20.53;;;5.97;;
31764;SDS011;18338;53.240;8.798;2022-12-07T01:36:29;17.37;;;5.57;;
31764;SDS011;18338;53.240;8.798;2022-12-07T01:38:58;9.07;;;4.10;;
31764;SDS011;18338;53.240;8.798;2022-12-07T01:41:28;10.50;;;4.50;;
31764;SDS011;18338;53.240;8.798;2022-12-07T01:44:16;11.57;;;4.20;;
31764;SDS011;18338;53.240;8.798;2022-12-07T01:46:53;10.07;;;4.07;;
31764;SDS011;18338;53.240;8.798;2022-12-07T01:52:40;8.17;;;3.23;;
31764;SDS011;18338;53.240;8.798;2022-12-07T01:54:44;8.27;;;2.53;;
31764;SDS011;18338;53.240;8.798;2022-12-07T01:57:13;9.67;;;2.70;;
31764;SDS011;18338;53.240;8.798;2022-12-07T01:59:42;5.97;;;2.00;;
31764;SDS011;18338;53.240;8.798;2022-12-07T02:02:13;7.23;;;2.20;;
31764;SDS011;18338;53.240;8.798;2022-12-07T02:05:03;6.13;;;1.90;;
31764;SDS011;18338;53.240;8.798;2022-12-07T02:07:32;6.57;;;1.90;;
31764;SDS011;18338;53.240;8.798;2022-12-07T02:13:06;5.93;;;2.10;;
31764;SDS011;18338;53.240;8.798;2022-12-07T02:15:59;4.60;;;2.10;;
31764;SDS011;18338;53.240;8.798;2022-12-07T02:21:44;8.43;;;2.33;;
31764;SDS011;18338;53.240;8.798;2022-12-07T02:24:31;9.40;;;2.50;;
31764;SDS011;18338;53.240;8.798;2022-12-07T02:30:28;7.90;;;2.67;;
31764;SDS011;18338;53.240;8.798;2022-12-07T02:33:00;10.23;;;3.40;;
31764;SDS011;18338;53.240;8.798;2022-12-07T02:35:42;11.70;;;4.27;;
31764;SDS011;18338;53.240;8.798;2022-12-07T02:38:28;8.07;;;3.93;;
31764;SDS011;18338;53.240;8.798;2022-12-07T02:41:02;10.13;;;4.20;;
31764;SDS011;18338;53.240;8.798;2022-12-07T02:43:35;9.53;;;4.20;;
31764;SDS011;18338;53.240;8.798;2022-12-07T02:46:09;6.93;;;4.03;;
31764;SDS011;18338;53.240;8.798;2022-12-07T02:48:40;8.30;;;4.00;;
31764;SDS011;18338;53.240;8.798;2022-12-07T02:51:09;10.37;;;4.23;;
31764;SDS011;18338;53.240;8.798;2022-12-07T02:53:37;8.17;;;3.83;;
31764;SDS011;18338;53.240;8.798;2022-12-07T02:56:19;7.90;;;3.93;;
31764;SDS011;18338;53.240;8.798;2022-12-07T03:04:29;6.90;;;2.70;;
31764;SDS011;18338;53.240;8.798;2022-12-07T03:07:00;3.77;;;2.47;;
31764;SDS011;18338;53.240;8.798;2022-12-07T03:10:03;8.80;;;1.90;;
31764;SDS011;18338;53.240;8.798;2022-12-07T03:12:53;2.97;;;1.97;;
31764;SDS011;18338;53.240;8.798;2022-12-07T03:15:26;5.83;;;1.83;;
31764;SDS011;18338;53.240;8.798;2022-12-07T03:17:57;6.87;;;1.90;;
31764;SDS011;18338;53.240;8.798;2022-12-07T03:20:26;4.30;;;1.50;;
31764;SDS011;18338;53.240;8.798;2022-12-07T03:22:55;2.40;;;1.30;;
31764;SDS011;18338;53.240;8.798;2022-12-07T03:25:23;3.37;;;1.50;;
31764;SDS011;18338;53.240;8.798;2022-12-07T03:30:47;6.30;;;1.30;;
31764;SDS011;18338;53.240;8.798;2022-12-07T03:33:23;3.27;;;1.07;;
31764;SDS011;18338;53.240;8.798;2022-12-07T03:35:58;3.17;;;1.23;;
31764;SDS011;18338;53.240;8.798;2022-12-07T03:38:33;6.97;;;1.30;;
31764;SDS011;18338;53.240;8.798;2022-12-07T03:41:08;2.37;;;1.10;;
31764;SDS011;18338;53.240;8.798;2022-12-07T03:43:40;3.47;;;1.07;;
31764;SDS011;18338;53.240;8.798;2022-12-07T03:48:57;4.67;;;1.17;;
31764;SDS011;18338;53.240;8.798;2022-12-07T03:51:50;2.70;;;0.90;;
31764;SDS011;18338;53.240;8.798;2022-12-07T03:54:30;4.50;;;1.00;;
31764;SDS011;18338;53.240;8.798;2022-12-07T03:57:11;2.90;;;0.97;;
31764;SDS011;18338;53.240;8.798;2022-12-07T03:59:39;4.47;;;1.07;;
31764;SDS011;18338;53.240;8.798;2022-12-07T04:02:07;3.20;;;0.90;;
31764;SDS011;18338;53.240;8.798;2022-12-07T04:04:37;5.17;;;1.20;;
31764;SDS011;18338;53.240;8.798;2022-12-07T04:07:03;5.37;;;1.10;;
31764;SDS011;18338;53.240;8.798;2022-12-07T04:09:30;6.57;;;1.30;;
31764;SDS011;18338;53.240;8.798;2022-12-07T04:11:57;5.03;;;1.20;;
31764;SDS011;18338;53.240;8.798;2022-12-07T04:14:24;3.87;;;1.10;;
31764;SDS011;18338;53.240;8.798;2022-12-07T04:16:51;7.63;;;1.50;;
31764;SDS011;18338;53.240;8.798;2022-12-07T04:19:23;4.70;;;1.57;;
31764;SDS011;18338;53.240;8.798;2022-12-07T04:21:55;4.90;;;1.27;;
31764;SDS011;18338;53.240;8.798;2022-12-07T04:24:23;5.13;;;1.40;;
31764;SDS011;18338;53.240;8.798;2022-12-07T04:26:50;7.33;;;1.30;;
31764;SDS011;18338;53.240;8.798;2022-12-07T04:29:17;4.70;;;1.40;;
31764;SDS011;18338;53.240;8.798;2022-12-07T04:31:44;3.70;;;1.37;;
31764;SDS011;18338;53.240;8.798;2022-12-07T04:34:12;3.10;;;1.10;;
31764;SDS011;18338;53.240;8.798;2022-12-07T04:36:40;2.63;;;1.13;;
31764;SDS011;18338;53.240;8.798;2022-12-07T04:39:08;2.90;;;0.97;;
31764;SDS011;18338;53.240;8.798;2022-12-07T04:41:43;4.37;;;1.40;;
31764;SDS011;18338;53.240;8.798;2022-12-07T04:44:09;3.70;;;1.00;;
31764;SDS011;18338;53.240;8.798;2022-12-07T04:46:40;6.77;;;1.33;;
31764;SDS011;18338;53.240;8.798;2022-12-07T04:49:08;2.73;;;1.00;;
31764;SDS011;18338;53.240;8.798;2022-12-07T04:51:35;2.97;;;1.17;;
31764;SDS011;18338;53.240;8.798;2022-12-07T04:54:02;5.17;;;1.20;;
31764;SDS011;18338;53.240;8.798;2022-12-07T04:56:29;4.27;;;1.00;;
31764;SDS011;18338;53.240;8.798;2022-12-07T04:58:56;4.43;;;1.00;;
31764;SDS011;18338;53.240;8.798;2022-12-07T05:01:22;4.63;;;1.07;;
31764;SDS011;18338;53.240;8.798;2022-12-07T05:03:50;3.50;;;0.73;;
31764;SDS011;18338;53.240;8.798;2022-12-07T05:06:16;4.33;;;0.93;;
31764;SDS011;18338;53.240;8.798;2022-12-07T05:08:43;2.03;;;1.03;;
31764;SDS011;18338;53.240;8.798;2022-12-07T05:11:11;4.07;;;0.90;;
31764;SDS011;18338;53.240;8.798;2022-12-07T05:13:58;2.87;;;1.10;;
31764;SDS011;18338;53.240;8.798;2022-12-07T05:16:28;5.00;;;1.00;;
31764;SDS011;18338;53.240;8.798;2022-12-07T05:18:56;5.23;;;1.40;;
31764;SDS011;18338;53.240;8.798;2022-12-07T05:21:23;3.73;;;1.90;;
31764;SDS011;18338;53.240;8.798;2022-12-07T05:23:50;4.30;;;1.50;;
31764;SDS011;18338;53.240;8.798;2022-12-07T05:26:17;5.07;;;2.30;;
31764;SDS011;18338;53.240;8.798;2022-12-07T05:28:45;6.10;;;2.27;;
31764;SDS011;18338;53.240;8.798;2022-12-07T05:31:15;7.23;;;3.13;;
31764;SDS011;18338;53.240;8.798;2022-12-07T05:33:42;6.07;;;2.20;;
31764;SDS011;18338;53.240;8.798;2022-12-07T05:36:09;6.30;;;2.27;;
31764;SDS011;18338;53.240;8.798;2022-12-07T05:38:35;4.00;;;2.30;;
31764;SDS011;18338;53.240;8.798;2022-12-07T05:41:05;4.10;;;1.93;;
31764;SDS011;18338;53.240;8.798;2022-12-07T05:43:33;4.73;;;2.47;;
31764;SDS011;18338;53.240;8.798;2022-12-07T05:45:59;5.97;;;2.20;;
31764;SDS011;18338;53.240;8.798;2022-12-07T05:48:26;6.67;;;2.00;;
31764;SDS011;18338;53.240;8.798;2022-12-07T05:50:53;5.07;;;2.40;;
31764;SDS011;18338;53.240;8.798;2022-12-07T05:53:20;7.53;;;2.23;;
31764;SDS011;18338;53.240;8.798;2022-12-07T05:55:48;4.93;;;1.93;;
31764;SDS011;18338;53.240;8.798;2022-12-07T05:58:15;3.93;;;1.97;;
31764;SDS011;18338;53.240;8.798;2022-12-07T06:01:01;4.47;;;1.63;;
31764;SDS011;18338;53.240;8.798;2022-12-07T06:03:27;4.57;;;1.60;;
31764;SDS011;18338;53.240;8.798;2022-12-07T06:05:54;3.23;;;1.10;;
31764;SDS011;18338;53.240;8.798;2022-12-07T06:08:21;6.87;;;1.33;;
31764;SDS011;18338;53.240;8.798;2022-12-07T06:10:48;5.37;;;1.70;;
31764;SDS011;18338;53.240;8.798;2022-12-07T06:13:35;2.00;;;1.00;;
31764;SDS011;18338;53.240;8.798;2022-12-07T06:16:02;3.07;;;1.10;;
31764;SDS011;18338;53.240;8.798;2022-12-07T06:18:28;2.47;;;1.50;;
31764;SDS011;18338;53.240;8.798;2022-12-07T06:20:55;4.27;;;1.53;;
31764;SDS011;18338;53.240;8.798;2022-12-07T06:23:22;4.70;;;1.47;;
31764;SDS011;18338;53.240;8.798;2022-12-07T06:25:49;2.70;;;1.40;;
31764;SDS011;18338;53.240;8.798;2022-12-07T06:28:15;2.63;;;1.00;;
31764;SDS011;18338;53.240;8.798;2022-12-07T06:30:42;3.77;;;1.30;;
31764;SDS011;18338;53.240;8.798;2022-12-07T06:33:09;4.20;;;1.53;;
31764;SDS011;18338;53.240;8.798;2022-12-07T06:35:36;4.03;;;1.80;;
31764;SDS011;18338;53.240;8.798;2022-12-07T06:38:02;3.10;;;1.57;;
31764;SDS011;18338;53.240;8.798;2022-12-07T06:40:29;5.23;;;1.83;;
31764;SDS011;18338;53.240;8.798;2022-12-07T06:42:56;4.20;;;1.40;;
31764;SDS011;18338;53.240;8.798;2022-12-07T06:45:23;2.53;;;1.30;;
31764;SDS011;18338;53.240;8.798;2022-12-07T06:47:50;4.23;;;1.50;;
31764;SDS011;18338;53.240;8.798;2022-12-07T06:50:17;2.90;;;1.37;;
31764;SDS011;18338;53.240;8.798;2022-12-07T06:52:43;7.03;;;1.87;;
31764;SDS011;18338;53.240;8.798;2022-12-07T06:55:10;6.33;;;1.50;;
31764;SDS011;18338;53.240;8.798;2022-12-07T06:57:37;3.60;;;1.37;;
31764;SDS011;18338;53.240;8.798;2022-12-07T07:00:04;5.70;;;1.13;;
31764;SDS011;18338;53.240;8.798;2022-12-07T07:02:32;2.70;;;0.80;;
31764;SDS011;18338;53.240;8.798;2022-12-07T07:04:59;6.43;;;1.60;;
31764;SDS011;18338;53.240;8.798;2022-12-07T07:07:25;3.83;;;1.30;;
31764;SDS011;18338;53.240;8.798;2022-12-07T07:09:52;4.50;;;1.55;;
31764;SDS011;18338;53.240;8.798;2022-12-07T07:12:19;3.90;;;1.40;;
31764;SDS011;18338;53.240;8.798;2022-12-07T07:14:46;3.40;;;1.50;;
31764;SDS011;18338;53.240;8.798;2022-12-07T07:17:13;5.93;;;1.63;;
31764;SDS011;18338;53.240;8.798;2022-12-07T07:19:39;4.23;;;1.50;;
31764;SDS011;18338;53.240;8.798;2022-12-07T07:22:06;4.90;;;1.30;;
31764;SDS011;18338;53.240;8.798;2022-12-07T07:24:33;7.10;;;2.10;;
31764;SDS011;18338;53.240;8.798;2022-12-07T07:27:00;3.93;;;1.50;;
31764;SDS011;18338;53.240;8.798;2022-12-07T07:29:27;4.83;;;1.50;;
31764;SDS011;18338;53.240;8.798;2022-12-07T07:31:54;3.27;;;1.20;;
31764;SDS011;18338;53.240;8.798;2022-12-07T07:34:20;7.53;;;2.03;;
31764;SDS011;18338;53.240;8.798;2022-12-07T07:36:47;4.97;;;1.87;;
31764;SDS011;18338;53.240;8.798;2022-12-07T07:39:14;3.17;;;1.60;;
31764;SDS011;18338;53.240;8.798;2022-12-07T07:41:41;8.50;;;1.77;;
31764;SDS011;18338;53.240;8.798;2022-12-07T07:44:08;4.53;;;1.60;;
31764;SDS011;18338;53.240;8.798;2022-12-07T07:46:36;5.70;;;1.83;;
31764;SDS011;18338;53.240;8.798;2022-12-07T07:49:02;4.77;;;2.30;;
31764;SDS011;18338;53.240;8.798;2022-12-07T07:51:29;5.37;;;1.80;;
31764;SDS011;18338;53.240;8.798;2022-12-07T07:53:56;5.33;;;2.27;;
31764;SDS011;18338;53.240;8.798;2022-12-07T07:56:23;7.97;;;1.77;;
31764;SDS011;18338;53.240;8.798;2022-12-07T07:58:53;6.33;;;2.07;;
31764;SDS011;18338;53.240;8.798;2022-12-07T08:01:20;4.87;;;1.93;;
31764;SDS011;18338;53.240;8.798;2022-12-07T08:03:47;7.10;;;2.47;;
31764;SDS011;18338;53.240;8.798;2022-12-07T08:06:14;6.93;;;2.30;;
31764;SDS011;18338;53.240;8.798;2022-12-07T08:08:41;8.30;;;2.53;;
31764;SDS011;18338;53.240;8.798;2022-12-07T08:11:08;8.60;;;2.50;;
31764;SDS011;18338;53.240;8.798;2022-12-07T08:13:36;5.87;;;3.10;;
31764;SDS011;18338;53.240;8.798;2022-12-07T08:16:03;7.53;;;2.97;;
31764;SDS011;18338;53.240;8.798;2022-12-07T08:18:34;8.27;;;3.47;;
31764;SDS011;18338;53.240;8.798;2022-12-07T08:21:03;8.63;;;4.77;;
31764;SDS011;18338;53.240;8.798;2022-12-07T08:23:30;9.33;;;3.50;;
31764;SDS011;18338;53.240;8.798;2022-12-07T08:26:06;7.80;;;5.03;;
31764;SDS011;18338;53.240;8.798;2022-12-07T08:28:36;12.93;;;4.97;;
31764;SDS011;18338;53.240;8.798;2022-12-07T08:31:05;7.57;;;4.93;;
31764;SDS011;18338;53.240;8.798;2022-12-07T08:33:35;6.93;;;5.27;;
31764;SDS011;18338;53.240;8.798;2022-12-07T08:36:06;13.57;;;6.27;;
31764;SDS011;18338;53.240;8.798;2022-12-07T08:38:36;10.93;;;5.10;;
31764;SDS011;18338;53.240;8.798;2022-12-07T08:41:04;5.83;;;4.10;;
31764;SDS011;18338;53.240;8.798;2022-12-07T08:43:32;13.37;;;4.40;;
31764;SDS011;18338;53.240;8.798;2022-12-07T08:49:31;11.80;;;4.47;;
31764;SDS011;18338;53.240;8.798;2022-12-07T08:51:40;8.93;;;4.20;;
31764;SDS011;18338;53.240;8.798;2022-12-07T08:54:08;6.50;;;4.00;;
31764;SDS011;18338;53.240;8.798;2022-12-07T08:56:37;6.73;;;3.97;;
31764;SDS011;18338;53.240;8.798;2022-12-07T08:59:04;7.60;;;3.53;;
31764;SDS011;18338;53.240;8.798;2022-12-07T09:01:32;6.83;;;3.40;;
31764;SDS011;18338;53.240;8.798;2022-12-07T09:03:59;5.80;;;2.80;;
31764;SDS011;18338;53.240;8.798;2022-12-07T09:06:27;8.43;;;2.90;;
31764;SDS011;18338;53.240;8.798;2022-12-07T09:08:55;4.83;;;2.00;;
31764;SDS011;18338;53.240;8.798;2022-12-07T09:11:25;7.20;;;2.10;;
31764;SDS011;18338;53.240;8.798;2022-12-07T09:13:54;3.40;;;1.70;;
31764;SDS011;18338;53.240;8.798;2022-12-07T09:16:22;3.53;;;1.70;;
31764;SDS011;18338;53.240;8.798;2022-12-07T09:18:49;3.40;;;1.40;;
31764;SDS011;18338;53.240;8.798;2022-12-07T09:21:16;4.83;;;1.50;;
31764;SDS011;18338;53.240;8.798;2022-12-07T09:23:43;3.63;;;1.30;;
31764;SDS011;18338;53.240;8.798;2022-12-07T09:26:09;4.13;;;1.73;;
31764;SDS011;18338;53.240;8.798;2022-12-07T09:28:37;4.90;;;1.10;;
31764;SDS011;18338;53.240;8.798;2022-12-07T09:31:04;3.57;;;1.03;;
31764;SDS011;18338;53.240;8.798;2022-12-07T09:33:54;4.37;;;0.97;;
31764;SDS011;18338;53.240;8.798;2022-12-07T09:36:26;2.50;;;0.70;;
31764;SDS011;18338;53.240;8.798;2022-12-07T09:38:53;4.93;;;1.20;;
31764;SDS011;18338;53.240;8.798;2022-12-07T09:41:21;2.80;;;0.97;;
31764;SDS011;18338;53.240;8.798;2022-12-07T09:43:48;3.80;;;0.57;;
31764;SDS011;18338;53.240;8.798;2022-12-07T09:46:16;2.37;;;0.60;;
31764;SDS011;18338;53.240;8.798;2022-12-07T09:48:46;4.53;;;0.80;;
31764;SDS011;18338;53.240;8.798;2022-12-07T09:51:18;2.77;;;0.80;;
31764;SDS011;18338;53.240;8.798;2022-12-07T09:53:50;3.60;;;1.15;;
31764;SDS011;18338;53.240;8.798;2022-12-07T09:56:19;4.50;;;0.90;;
31764;SDS011;18338;53.240;8.798;2022-12-07T09:58:47;1.70;;;0.73;;
31764;SDS011;18338;53.240;8.798;2022-12-07T10:01:16;2.05;;;1.00;;
31764;SDS011;18338;53.240;8.798;2022-12-07T10:06:40;2.95;;;1.60;;
31764;SDS011;18338;53.240;8.798;2022-12-07T10:09:11;6.95;;;2.30;;
31764;SDS011;18338;53.240;8.798;2022-12-07T10:14:28;3.13;;;1.50;;
31764;SDS011;18338;53.240;8.798;2022-12-07T10:20:26;4.80;;;1.73;;
31764;SDS011;18338;53.240;8.798;2022-12-07T10:22:57;3.10;;;1.63;;
31764;SDS011;18338;53.240;8.798;2022-12-07T10:25:29;5.45;;;1.40;;
31764;SDS011;18338;53.240;8.798;2022-12-07T10:30:29;4.47;;;1.65;;
31764;SDS011;18338;53.240;8.798;2022-12-07T10:32:57;3.40;;;1.00;;
31764;SDS011;18338;53.240;8.798;2022-12-07T10:35:28;2.03;;;1.00;;
31764;SDS011;18338;53.240;8.798;2022-12-07T10:37:57;3.15;;;1.08;;
31764;SDS011;18338;53.240;8.798;2022-12-07T10:43:00;3.35;;;1.15;;
31764;SDS011;18338;53.240;8.798;2022-12-07T10:45:54;3.97;;;1.60;;
31764;SDS011;18338;53.240;8.798;2022-12-07T10:54:39;1.63;;;0.60;;
31764;SDS011;18338;53.240;8.798;2022-12-07T11:05:06;3.20;;;0.90;;
31764;SDS011;18338;53.240;8.798;2022-12-07T11:08:09;2.88;;;1.10;;
31764;SDS011;18338;53.240;8.798;2022-12-07T11:10:51;2.42;;;1.00;;
31764;SDS011;18338;53.240;8.798;2022-12-07T11:13:37;2.78;;;1.42;;
31764;SDS011;18338;53.240;8.798;2022-12-07T11:24:27;3.90;;;1.35;;
31764;SDS011;18338;53.240;8.798;2022-12-07T11:33:15;4.28;;;1.10;;
31764;SDS011;18338;53.240;8.798;2022-12-07T11:38:39;5.80;;;1.45;;
31764;SDS011;18338;53.240;8.798;2022-12-07T11:41:14;3.17;;;0.83;;
31764;SDS011;18338;53.240;8.798;2022-12-07T11:46:28;2.60;;;0.70;;
31764;SDS011;18338;53.240;8.798;2022-12-07T11:52:14;2.23;;;0.80;;
31764;SDS011;18338;53.240;8.798;2022-12-07T11:54:48;2.27;;;0.70;;
31764;SDS011;18338;53.240;8.798;2022-12-07T11:57:24;0.67;;;0.40;;
31764;SDS011;18338;53.240;8.798;2022-12-07T12:00:03;3.60;;;0.80;;
31764;SDS011;18338;53.240;8.798;2022-12-07T12:02:35;3.00;;;0.80;;
31764;SDS011;18338;53.240;8.798;2022-12-07T12:05:25;1.50;;;0.70;;
31764;SDS011;18338;53.240;8.798;2022-12-07T12:14:15;3.80;;;1.10;;
31764;SDS011;18338;53.240;8.798;2022-12-07T12:20:06;2.80;;;0.60;;
31764;SDS011;18338;53.240;8.798;2022-12-07T12:22:59;3.77;;;1.33;;
31764;SDS011;18338;53.240;8.798;2022-12-07T12:25:38;2.87;;;0.73;;
31764;SDS011;18338;53.240;8.798;2022-12-07T12:31:06;2.00;;;0.63;;
31764;SDS011;18338;53.240;8.798;2022-12-07T12:33:59;2.23;;;0.70;;
31764;SDS011;18338;53.240;8.798;2022-12-07T12:47:01;3.20;;;0.70;;
31764;SDS011;18338;53.240;8.798;2022-12-07T12:49:40;3.20;;;0.97;;
31764;SDS011;18338;53.240;8.798;2022-12-07T12:55:17;3.10;;;1.10;;
31764;SDS011;18338;53.240;8.798;2022-12-07T12:57:49;1.00;;;0.63;;
31764;SDS011;18338;53.240;8.798;2022-12-07T13:00:46;2.37;;;0.93;;
31764;SDS011;18338;53.240;8.798;2022-12-07T13:03:26;3.70;;;0.87;;
31764;SDS011;18338;53.240;8.798;2022-12-07T13:08:46;1.37;;;0.80;;
31764;SDS011;18338;53.240;8.798;2022-12-07T13:11:17;4.73;;;0.90;;
31764;SDS011;18338;53.240;8.798;2022-12-07T13:17:11;4.80;;;1.40;;
31764;SDS011;18338;53.240;8.798;2022-12-07T13:20:05;4.77;;;1.60;;
31764;SDS011;18338;53.240;8.798;2022-12-07T13:22:43;3.97;;;1.40;;
31764;SDS011;18338;53.240;8.798;2022-12-07T13:25:22;5.77;;;1.20;;
31764;SDS011;18338;53.240;8.798;2022-12-07T13:28:21;5.83;;;1.70;;
31764;SDS011;18338;53.240;8.798;2022-12-07T13:30:58;2.93;;;1.17;;
31764;SDS011;18338;53.240;8.798;2022-12-07T13:33:48;3.67;;;1.40;;
31764;SDS011;18338;53.240;8.798;2022-12-07T13:36:22;4.33;;;1.20;;
31764;SDS011;18338;53.240;8.798;2022-12-07T13:38:55;3.53;;;0.80;;
31764;SDS011;18338;53.240;8.798;2022-12-07T13:41:35;4.40;;;1.20;;
31764;SDS011;18338;53.240;8.798;2022-12-07T13:44:08;1.70;;;1.00;;
31764;SDS011;18338;53.240;8.798;2022-12-07T13:46:42;3.57;;;1.40;;
31764;SDS011;18338;53.240;8.798;2022-12-07T13:49:24;7.13;;;1.53;;
31764;SDS011;18338;53.240;8.798;2022-12-07T13:51:53;6.50;;;1.20;;
31764;SDS011;18338;53.240;8.798;2022-12-07T13:54:21;2.67;;;1.10;;
31764;SDS011;18338;53.240;8.798;2022-12-07T13:56:49;3.40;;;0.70;;
31764;SDS011;18338;53.240;8.798;2022-12-07T13:59:18;2.33;;;0.70;;
31764;SDS011;18338;53.240;8.798;2022-12-07T14:01:51;1.87;;;0.60;;
31764;SDS011;18338;53.240;8.798;2022-12-07T14:04:26;1.70;;;0.50;;
31764;SDS011;18338;53.240;8.798;2022-12-07T14:06:57;4.03;;;0.50;;
31764;SDS011;18338;53.240;8.798;2022-12-07T14:09:25;1.50;;;0.50;;
31764;SDS011;18338;53.240;8.798;2022-12-07T14:11:54;3.30;;;0.50;;
31764;SDS011;18338;53.240;8.798;2022-12-07T14:14:23;2.33;;;0.67;;
31764;SDS011;18338;53.240;8.798;2022-12-07T14:17:18;2.10;;;0.77;;
31764;SDS011;18338;53.240;8.798;2022-12-07T14:19:52;1.50;;;0.50;;
31764;SDS011;18338;53.240;8.798;2022-12-07T14:22:26;1.27;;;0.50;;
31764;SDS011;18338;53.240;8.798;2022-12-07T14:25:00;1.33;;;0.60;;
31764;SDS011;18338;53.240;8.798;2022-12-07T14:27:33;3.23;;;0.90;;
31764;SDS011;18338;53.240;8.798;2022-12-07T14:30:03;2.40;;;0.50;;
31764;SDS011;18338;53.240;8.798;2022-12-07T14:32:31;1.70;;;0.93;;
31764;SDS011;18338;53.240;8.798;2022-12-07T14:37:39;5.50;;;3.20;;
31764;SDS011;18338;53.240;8.798;2022-12-07T14:40:07;5.87;;;2.40;;
31764;SDS011;18338;53.240;8.798;2022-12-07T14:42:39;3.07;;;2.13;;
31764;SDS011;18338;53.240;8.798;2022-12-07T14:45:06;5.53;;;3.20;;
31764;SDS011;18338;53.240;8.798;2022-12-07T14:47:38;5.73;;;3.73;;
31764;SDS011;18338;53.240;8.798;2022-12-07T14:50:25;6.50;;;3.90;;
31764;SDS011;18338;53.240;8.798;2022-12-07T14:52:58;8.73;;;4.50;;
31764;SDS011;18338;53.240;8.798;2022-12-07T14:55:48;3.00;;;1.50;;
31764;SDS011;18338;53.240;8.798;2022-12-07T14:58:15;2.17;;;1.10;;
31764;SDS011;18338;53.240;8.798;2022-12-07T15:00:43;4.73;;;0.93;;
31764;SDS011;18338;53.240;8.798;2022-12-07T15:03:10;6.87;;;2.07;;
31764;SDS011;18338;53.240;8.798;2022-12-07T15:05:39;4.63;;;2.00;;
31764;SDS011;18338;53.240;8.798;2022-12-07T15:08:08;4.43;;;1.93;;
31764;SDS011;18338;53.240;8.798;2022-12-07T15:10:37;5.17;;;2.60;;
31764;SDS011;18338;53.240;8.798;2022-12-07T15:13:06;6.27;;;2.40;;
31764;SDS011;18338;53.240;8.798;2022-12-07T15:15:52;5.37;;;2.60;;
31764;SDS011;18338;53.240;8.798;2022-12-07T15:18:21;4.43;;;2.07;;
31764;SDS011;18338;53.240;8.798;2022-12-07T15:20:49;7.20;;;2.60;;
31764;SDS011;18338;53.240;8.798;2022-12-07T15:23:16;5.03;;;2.03;;
31764;SDS011;18338;53.240;8.798;2022-12-07T15:25:43;8.00;;;1.87;;
31764;SDS011;18338;53.240;8.798;2022-12-07T15:28:11;6.73;;;1.80;;
31764;SDS011;18338;53.240;8.798;2022-12-07T15:30:39;4.30;;;2.43;;
31764;SDS011;18338;53.240;8.798;2022-12-07T15:33:09;4.27;;;1.40;;
31764;SDS011;18338;53.240;8.798;2022-12-07T15:35:41;3.57;;;1.37;;
31764;SDS011;18338;53.240;8.798;2022-12-07T15:38:09;6.07;;;2.03;;
31764;SDS011;18338;53.240;8.798;2022-12-07T15:40:36;8.83;;;2.30;;
31764;SDS011;18338;53.240;8.798;2022-12-07T15:43:03;3.30;;;1.97;;
31764;SDS011;18338;53.240;8.798;2022-12-07T15:45:30;9.80;;;3.27;;
31764;SDS011;18338;53.240;8.798;2022-12-07T15:47:57;7.37;;;2.93;;
31764;SDS011;18338;53.240;8.798;2022-12-07T15:50:44;5.63;;;2.97;;
31764;SDS011;18338;53.240;8.798;2022-12-07T15:53:11;6.63;;;2.60;;
31764;SDS011;18338;53.240;8.798;2022-12-07T15:55:40;9.30;;;2.50;;
31764;SDS011;18338;53.240;8.798;2022-12-07T15:58:07;7.63;;;2.17;;
31764;SDS011;18338;53.240;8.798;2022-12-07T16:00:34;7.37;;;2.43;;
31764;SDS011;18338;53.240;8.798;2022-12-07T16:03:00;6.57;;;3.40;;
31764;SDS011;18338;53.240;8.798;2022-12-07T16:05:27;7.70;;;4.40;;
31764;SDS011;18338;53.240;8.798;2022-12-07T16:07:54;6.47;;;3.40;;
31764;SDS011;18338;53.240;8.798;2022-12-07T16:10:21;7.77;;;4.70;;
31764;SDS011;18338;53.240;8.798;2022-12-07T16:12:47;6.77;;;3.63;;
31764;SDS011;18338;53.240;8.798;2022-12-07T16:15:14;5.13;;;3.50;;
31764;SDS011;18338;53.240;8.798;2022-12-07T16:17:48;5.97;;;3.43;;
31764;SDS011;18338;53.240;8.798;2022-12-07T16:20:14;6.43;;;3.20;;
31764;SDS011;18338;53.240;8.798;2022-12-07T16:22:41;5.60;;;2.97;;
31764;SDS011;18338;53.240;8.798;2022-12-07T16:25:08;5.10;;;3.30;;
31764;SDS011;18338;53.240;8.798;2022-12-07T16:27:35;5.90;;;3.60;;
31764;SDS011;18338;53.240;8.798;2022-12-07T16:30:01;5.43;;;3.13;;
31764;SDS011;18338;53.240;8.798;2022-12-07T16:32:29;5.03;;;3.20;;
31764;SDS011;18338;53.240;8.798;2022-12-07T16:34:56;4.43;;;3.50;;
31764;SDS011;18338;53.240;8.798;2022-12-07T16:37:26;6.37;;;4.23;;
31764;SDS011;18338;53.240;8.798;2022-12-07T16:39:52;6.27;;;4.00;;
31764;SDS011;18338;53.240;8.798;2022-12-07T16:42:19;8.90;;;4.77;;
31764;SDS011;18338;53.240;8.798;2022-12-07T16:44:46;14.07;;;12.30;;
31764;SDS011;18338;53.240;8.798;2022-12-07T16:47:16;56.53;;;44.00;;
31764;SDS011;18338;53.240;8.798;2022-12-07T16:50:15;16.07;;;12.17;;
31764;SDS011;18338;53.240;8.798;2022-12-07T16:52:42;12.23;;;8.33;;
31764;SDS011;18338;53.240;8.798;2022-12-07T16:55:09;11.93;;;9.27;;
31764;SDS011;18338;53.240;8.798;2022-12-07T16:57:35;9.23;;;5.60;;
31764;SDS011;18338;53.240;8.798;2022-12-07T17:00:03;6.17;;;5.57;;
31764;SDS011;18338;53.240;8.798;2022-12-07T17:02:30;9.57;;;5.10;;
31764;SDS011;18338;53.240;8.798;2022-12-07T17:04:57;11.03;;;6.03;;
31764;SDS011;18338;53.240;8.798;2022-12-07T17:07:23;10.77;;;8.57;;
31764;SDS011;18338;53.240;8.798;2022-12-07T17:09:51;10.43;;;7.00;;
31764;SDS011;18338;53.240;8.798;2022-12-07T17:12:18;8.73;;;7.30;;
31764;SDS011;18338;53.240;8.798;2022-12-07T17:14:45;9.70;;;8.17;;
31764;SDS011;18338;53.240;8.798;2022-12-07T17:17:30;16.57;;;14.00;;
31764;SDS011;18338;53.240;8.798;2022-12-07T17:19:58;16.10;;;14.43;;
31764;SDS011;18338;53.240;8.798;2022-12-07T17:22:25;20.27;;;16.27;;
31764;SDS011;18338;53.240;8.798;2022-12-07T17:24:51;19.73;;;15.10;;
31764;SDS011;18338;53.240;8.798;2022-12-07T17:27:18;11.80;;;10.50;;